sensor_id;sensor_type;location;lat;lon;timestamp;P1;durP1;ratioP1;P2;durP2;ratioP2
4867;SDS011;2448;48.086;10.862;2023-08-20T00:02:07;10.17;;;3.93;;
4867;SDS011;2448;48.086;10.862;2023-08-20T00:04:33;5.17;;;4.00;;
4867;SDS011;2448;48.086;10.862;2023-08-20T00:07:00;6.73;;;4.13;;
4867;SDS011;2448;48.086;10.862;2023-08-20T00:09:26;7.70;;;4.53;;
4867;SDS011;2448;48.086;10.862;2023-08-20T00:11:52;8.57;;;4.10;;
4867;SDS011;2448;48.086;10.862;2023-08-20T00:14:17;7.20;;;3.83;;
4867;SDS011;2448;48.086;10.862;2023-08-20T00:16:43;4.70;;;4.30;;
4867;SDS011;2448;48.086;10.862;2023-08-20T00:19:09;7.90;;;4.17;;
4867;SDS011;2448;48.086;10.862;2023-08-20T00:21:34;12.83;;;4.57;;
4867;SDS011;2448;48.086;10.862;2023-08-20T00:24:00;6.87;;;3.87;;
4867;SDS011;2448;48.086;10.862;2023-08-20T00:26:25;12.80;;;4.60;;
4867;SDS011;2448;48.086;10.862;2023-08-20T00:28:51;5.43;;;4.43;;
4867;SDS011;2448;48.086;10.862;2023-08-20T00:31:16;10.63;;;4.23;;
4867;SDS011;2448;48.086;10.862;2023-08-20T00:33:42;7.63;;;3.90;;
4867;SDS011;2448;48.086;10.862;2023-08-20T00:36:08;11.67;;;4.07;;
4867;SDS011;2448;48.086;10.862;2023-08-20T00:38:33;4.93;;;3.97;;
4867;SDS011;2448;48.086;10.862;2023-08-20T00:41:00;4.87;;;3.70;;
4867;SDS011;2448;48.086;10.862;2023-08-20T00:43:26;9.63;;;4.20;;
4867;SDS011;2448;48.086;10.862;2023-08-20T00:45:51;7.13;;;4.43;;
4867;SDS011;2448;48.086;10.862;2023-08-20T00:48:17;4.10;;;3.73;;
4867;SDS011;2448;48.086;10.862;2023-08-20T00:50:43;6.67;;;3.87;;
4867;SDS011;2448;48.086;10.862;2023-08-20T00:53:09;4.90;;;4.40;;
4867;SDS011;2448;48.086;10.862;2023-08-20T00:55:35;5.77;;;3.77;;
4867;SDS011;2448;48.086;10.862;2023-08-20T00:58:01;7.50;;;4.10;;
4867;SDS011;2448;48.086;10.862;2023-08-20T01:00:27;6.30;;;4.50;;
4867;SDS011;2448;48.086;10.862;2023-08-20T01:02:53;12.43;;;4.63;;
4867;SDS011;2448;48.086;10.862;2023-08-20T01:05:18;3.73;;;3.43;;
4867;SDS011;2448;48.086;10.862;2023-08-20T01:13:00;5.73;;;4.20;;
4867;SDS011;2448;48.086;10.862;2023-08-20T01:15:26;4.13;;;3.73;;
4867;SDS011;2448;48.086;10.862;2023-08-20T01:17:51;5.83;;;3.70;;
4867;SDS011;2448;48.086;10.862;2023-08-20T01:20:16;5.23;;;4.03;;
4867;SDS011;2448;48.086;10.862;2023-08-20T01:26:11;8.00;;;4.17;;
4867;SDS011;2448;48.086;10.862;2023-08-20T01:28:31;13.80;;;4.20;;
4867;SDS011;2448;48.086;10.862;2023-08-20T01:30:57;5.20;;;4.30;;
4867;SDS011;2448;48.086;10.862;2023-08-20T01:33:22;8.77;;;4.63;;
4867;SDS011;2448;48.086;10.862;2023-08-20T01:35:50;5.77;;;4.20;;
4867;SDS011;2448;48.086;10.862;2023-08-20T01:38:16;5.50;;;4.40;;
4867;SDS011;2448;48.086;10.862;2023-08-20T01:40:41;10.00;;;3.90;;
4867;SDS011;2448;48.086;10.862;2023-08-20T01:43:07;5.00;;;3.90;;
4867;SDS011;2448;48.086;10.862;2023-08-20T01:45:32;13.40;;;4.40;;
4867;SDS011;2448;48.086;10.862;2023-08-20T01:47:57;8.00;;;5.30;;
4867;SDS011;2448;48.086;10.862;2023-08-20T01:50:23;5.13;;;4.50;;
4867;SDS011;2448;48.086;10.862;2023-08-20T01:52:48;8.40;;;5.07;;
4867;SDS011;2448;48.086;10.862;2023-08-20T01:55:14;8.73;;;4.90;;
4867;SDS011;2448;48.086;10.862;2023-08-20T01:57:39;10.47;;;4.93;;
4867;SDS011;2448;48.086;10.862;2023-08-20T02:00:05;7.07;;;4.70;;
4867;SDS011;2448;48.086;10.862;2023-08-20T02:02:39;9.20;;;4.83;;
4867;SDS011;2448;48.086;10.862;2023-08-20T02:05:04;5.70;;;4.60;;
4867;SDS011;2448;48.086;10.862;2023-08-20T02:07:29;7.23;;;4.87;;
4867;SDS011;2448;48.086;10.862;2023-08-20T02:09:55;9.10;;;5.50;;
4867;SDS011;2448;48.086;10.862;2023-08-20T02:12:20;5.20;;;3.80;;
4867;SDS011;2448;48.086;10.862;2023-08-20T02:14:46;4.90;;;4.30;;
4867;SDS011;2448;48.086;10.862;2023-08-20T02:17:11;11.60;;;4.80;;
4867;SDS011;2448;48.086;10.862;2023-08-20T02:19:40;4.30;;;3.90;;
4867;SDS011;2448;48.086;10.862;2023-08-20T02:22:05;9.63;;;4.80;;
4867;SDS011;2448;48.086;10.862;2023-08-20T02:24:31;8.23;;;5.43;;
4867;SDS011;2448;48.086;10.862;2023-08-20T02:26:56;8.83;;;4.57;;
4867;SDS011;2448;48.086;10.862;2023-08-20T02:29:22;16.50;;;5.20;;
4867;SDS011;2448;48.086;10.862;2023-08-20T02:31:47;12.97;;;5.93;;
4867;SDS011;2448;48.086;10.862;2023-08-20T02:34:14;9.70;;;4.83;;
4867;SDS011;2448;48.086;10.862;2023-08-20T02:36:39;5.90;;;3.97;;
4867;SDS011;2448;48.086;10.862;2023-08-20T02:39:05;5.73;;;4.50;;
4867;SDS011;2448;48.086;10.862;2023-08-20T02:41:34;7.50;;;4.67;;
4867;SDS011;2448;48.086;10.862;2023-08-20T02:44:01;11.67;;;4.83;;
4867;SDS011;2448;48.086;10.862;2023-08-20T02:46:27;7.13;;;4.90;;
4867;SDS011;2448;48.086;10.862;2023-08-20T02:48:52;10.03;;;5.50;;
4867;SDS011;2448;48.086;10.862;2023-08-20T02:51:19;10.47;;;5.03;;
4867;SDS011;2448;48.086;10.862;2023-08-20T02:53:44;6.80;;;4.60;;
4867;SDS011;2448;48.086;10.862;2023-08-20T02:56:09;11.57;;;4.47;;
4867;SDS011;2448;48.086;10.862;2023-08-20T02:58:35;7.67;;;4.57;;
4867;SDS011;2448;48.086;10.862;2023-08-20T03:01:00;7.53;;;4.67;;
4867;SDS011;2448;48.086;10.862;2023-08-20T03:03:26;10.13;;;5.60;;
4867;SDS011;2448;48.086;10.862;2023-08-20T03:05:51;8.17;;;5.00;;
4867;SDS011;2448;48.086;10.862;2023-08-20T03:08:17;7.07;;;5.10;;
4867;SDS011;2448;48.086;10.862;2023-08-20T03:10:42;15.07;;;5.80;;
4867;SDS011;2448;48.086;10.862;2023-08-20T03:13:08;6.00;;;4.30;;
4867;SDS011;2448;48.086;10.862;2023-08-20T03:15:33;9.80;;;4.40;;
4867;SDS011;2448;48.086;10.862;2023-08-20T03:17:58;8.07;;;4.90;;
4867;SDS011;2448;48.086;10.862;2023-08-20T03:20:24;6.73;;;4.70;;
4867;SDS011;2448;48.086;10.862;2023-08-20T03:22:49;8.17;;;4.70;;
4867;SDS011;2448;48.086;10.862;2023-08-20T03:25:15;11.83;;;4.77;;
4867;SDS011;2448;48.086;10.862;2023-08-20T03:27:41;7.20;;;4.87;;
4867;SDS011;2448;48.086;10.862;2023-08-20T03:30:07;8.17;;;4.80;;
4867;SDS011;2448;48.086;10.862;2023-08-20T03:32:32;10.03;;;4.57;;
4867;SDS011;2448;48.086;10.862;2023-08-20T03:34:58;6.93;;;4.63;;
4867;SDS011;2448;48.086;10.862;2023-08-20T03:37:24;4.63;;;4.10;;
4867;SDS011;2448;48.086;10.862;2023-08-20T03:39:50;8.67;;;4.70;;
4867;SDS011;2448;48.086;10.862;2023-08-20T03:42:15;13.20;;;5.10;;
4867;SDS011;2448;48.086;10.862;2023-08-20T03:44:41;7.80;;;5.00;;
4867;SDS011;2448;48.086;10.862;2023-08-20T03:47:06;13.57;;;5.33;;
4867;SDS011;2448;48.086;10.862;2023-08-20T03:49:32;12.23;;;4.80;;
4867;SDS011;2448;48.086;10.862;2023-08-20T03:51:57;6.13;;;4.30;;
4867;SDS011;2448;48.086;10.862;2023-08-20T03:54:22;4.53;;;4.13;;
4867;SDS011;2448;48.086;10.862;2023-08-20T03:56:48;8.67;;;5.27;;
4867;SDS011;2448;48.086;10.862;2023-08-20T03:59:13;8.83;;;4.70;;
4867;SDS011;2448;48.086;10.862;2023-08-20T04:01:39;12.00;;;4.60;;
4867;SDS011;2448;48.086;10.862;2023-08-20T04:04:04;6.53;;;4.90;;
4867;SDS011;2448;48.086;10.862;2023-08-20T04:06:30;6.20;;;4.00;;
4867;SDS011;2448;48.086;10.862;2023-08-20T04:08:55;9.47;;;4.97;;
4867;SDS011;2448;48.086;10.862;2023-08-20T04:11:20;7.27;;;4.60;;
4867;SDS011;2448;48.086;10.862;2023-08-20T04:13:46;8.50;;;5.10;;
4867;SDS011;2448;48.086;10.862;2023-08-20T04:16:12;8.00;;;4.90;;
4867;SDS011;2448;48.086;10.862;2023-08-20T04:18:37;9.47;;;5.30;;
4867;SDS011;2448;48.086;10.862;2023-08-20T04:21:03;7.70;;;5.67;;
4867;SDS011;2448;48.086;10.862;2023-08-20T04:23:28;4.37;;;3.90;;
4867;SDS011;2448;48.086;10.862;2023-08-20T04:25:54;7.17;;;4.67;;
4867;SDS011;2448;48.086;10.862;2023-08-20T04:28:19;8.50;;;4.50;;
4867;SDS011;2448;48.086;10.862;2023-08-20T04:30:45;7.20;;;4.90;;
4867;SDS011;2448;48.086;10.862;2023-08-20T04:33:11;12.67;;;4.50;;
4867;SDS011;2448;48.086;10.862;2023-08-20T04:35:38;5.63;;;5.07;;
4867;SDS011;2448;48.086;10.862;2023-08-20T04:38:03;6.00;;;4.33;;
4867;SDS011;2448;48.086;10.862;2023-08-20T04:40:28;7.10;;;4.13;;
4867;SDS011;2448;48.086;10.862;2023-08-20T04:42:54;8.00;;;4.23;;
4867;SDS011;2448;48.086;10.862;2023-08-20T04:45:20;6.20;;;4.27;;
4867;SDS011;2448;48.086;10.862;2023-08-20T04:47:46;6.97;;;4.20;;
4867;SDS011;2448;48.086;10.862;2023-08-20T04:50:12;16.70;;;5.23;;
4867;SDS011;2448;48.086;10.862;2023-08-20T04:52:38;6.67;;;4.90;;
4867;SDS011;2448;48.086;10.862;2023-08-20T04:55:04;6.57;;;4.73;;
4867;SDS011;2448;48.086;10.862;2023-08-20T04:57:31;12.17;;;4.07;;
4867;SDS011;2448;48.086;10.862;2023-08-20T04:59:56;7.67;;;5.20;;
4867;SDS011;2448;48.086;10.862;2023-08-20T05:02:22;8.13;;;5.27;;
4867;SDS011;2448;48.086;10.862;2023-08-20T05:04:55;10.10;;;5.20;;
4867;SDS011;2448;48.086;10.862;2023-08-20T05:07:20;8.43;;;4.60;;
4867;SDS011;2448;48.086;10.862;2023-08-20T05:09:46;4.90;;;4.23;;
4867;SDS011;2448;48.086;10.862;2023-08-20T05:12:12;7.17;;;5.43;;
4867;SDS011;2448;48.086;10.862;2023-08-20T05:14:37;6.83;;;4.07;;
4867;SDS011;2448;48.086;10.862;2023-08-20T05:17:03;8.77;;;5.20;;
4867;SDS011;2448;48.086;10.862;2023-08-20T05:19:28;6.23;;;4.80;;
4867;SDS011;2448;48.086;10.862;2023-08-20T05:21:54;7.70;;;4.47;;
4867;SDS011;2448;48.086;10.862;2023-08-20T05:24:24;9.10;;;4.77;;
4867;SDS011;2448;48.086;10.862;2023-08-20T05:27:06;5.77;;;4.70;;
4867;SDS011;2448;48.086;10.862;2023-08-20T05:29:32;9.83;;;4.83;;
4867;SDS011;2448;48.086;10.862;2023-08-20T05:31:58;5.13;;;4.20;;
4867;SDS011;2448;48.086;10.862;2023-08-20T05:34:24;10.63;;;4.80;;
4867;SDS011;2448;48.086;10.862;2023-08-20T05:36:49;5.67;;;4.33;;
4867;SDS011;2448;48.086;10.862;2023-08-20T05:39:15;11.50;;;4.70;;
4867;SDS011;2448;48.086;10.862;2023-08-20T05:41:40;5.57;;;4.90;;
4867;SDS011;2448;48.086;10.862;2023-08-20T05:44:05;7.63;;;4.40;;
4867;SDS011;2448;48.086;10.862;2023-08-20T05:46:31;13.03;;;5.27;;
4867;SDS011;2448;48.086;10.862;2023-08-20T05:48:56;9.20;;;5.33;;
4867;SDS011;2448;48.086;10.862;2023-08-20T05:51:22;11.40;;;4.80;;
4867;SDS011;2448;48.086;10.862;2023-08-20T05:53:48;6.90;;;4.63;;
4867;SDS011;2448;48.086;10.862;2023-08-20T05:56:13;9.57;;;4.30;;
4867;SDS011;2448;48.086;10.862;2023-08-20T05:58:38;5.37;;;4.33;;
4867;SDS011;2448;48.086;10.862;2023-08-20T06:01:04;13.00;;;4.57;;
4867;SDS011;2448;48.086;10.862;2023-08-20T06:03:29;5.70;;;4.80;;
4867;SDS011;2448;48.086;10.862;2023-08-20T06:05:56;7.67;;;4.50;;
4867;SDS011;2448;48.086;10.862;2023-08-20T06:08:22;8.97;;;4.40;;
4867;SDS011;2448;48.086;10.862;2023-08-20T06:10:47;8.20;;;5.00;;
4867;SDS011;2448;48.086;10.862;2023-08-20T06:13:12;9.53;;;4.60;;
4867;SDS011;2448;48.086;10.862;2023-08-20T06:15:38;4.93;;;4.30;;
4867;SDS011;2448;48.086;10.862;2023-08-20T06:18:03;9.70;;;5.37;;
4867;SDS011;2448;48.086;10.862;2023-08-20T06:20:29;4.60;;;4.20;;
4867;SDS011;2448;48.086;10.862;2023-08-20T06:22:54;6.67;;;4.47;;
4867;SDS011;2448;48.086;10.862;2023-08-20T06:25:19;7.23;;;4.97;;
4867;SDS011;2448;48.086;10.862;2023-08-20T06:27:45;15.43;;;4.47;;
4867;SDS011;2448;48.086;10.862;2023-08-20T06:30:11;18.80;;;4.43;;
4867;SDS011;2448;48.086;10.862;2023-08-20T06:32:36;15.53;;;5.20;;
4867;SDS011;2448;48.086;10.862;2023-08-20T06:35:01;4.80;;;4.20;;
4867;SDS011;2448;48.086;10.862;2023-08-20T06:37:27;4.83;;;4.13;;
4867;SDS011;2448;48.086;10.862;2023-08-20T06:39:52;6.57;;;4.50;;
4867;SDS011;2448;48.086;10.862;2023-08-20T06:42:17;6.17;;;4.20;;
4867;SDS011;2448;48.086;10.862;2023-08-20T06:44:43;6.80;;;4.47;;
4867;SDS011;2448;48.086;10.862;2023-08-20T06:47:08;6.40;;;5.13;;
4867;SDS011;2448;48.086;10.862;2023-08-20T06:49:34;7.77;;;4.57;;
4867;SDS011;2448;48.086;10.862;2023-08-20T06:51:59;8.73;;;5.30;;
4867;SDS011;2448;48.086;10.862;2023-08-20T06:54:24;5.37;;;4.77;;
4867;SDS011;2448;48.086;10.862;2023-08-20T06:56:50;9.33;;;4.90;;
4867;SDS011;2448;48.086;10.862;2023-08-20T06:59:15;5.43;;;3.97;;
4867;SDS011;2448;48.086;10.862;2023-08-20T07:01:41;4.83;;;4.00;;
4867;SDS011;2448;48.086;10.862;2023-08-20T07:04:07;4.50;;;4.10;;
4867;SDS011;2448;48.086;10.862;2023-08-20T07:06:32;5.97;;;4.33;;
4867;SDS011;2448;48.086;10.862;2023-08-20T07:08:58;6.03;;;4.53;;
4867;SDS011;2448;48.086;10.862;2023-08-20T07:11:23;10.60;;;5.17;;
4867;SDS011;2448;48.086;10.862;2023-08-20T07:13:48;11.07;;;5.73;;
4867;SDS011;2448;48.086;10.862;2023-08-20T07:16:14;7.13;;;5.50;;
4867;SDS011;2448;48.086;10.862;2023-08-20T07:18:39;4.57;;;4.10;;
4867;SDS011;2448;48.086;10.862;2023-08-20T07:21:04;4.20;;;3.90;;
4867;SDS011;2448;48.086;10.862;2023-08-20T07:23:30;8.03;;;4.30;;
4867;SDS011;2448;48.086;10.862;2023-08-20T07:26:08;6.00;;;3.90;;
4867;SDS011;2448;48.086;10.862;2023-08-20T07:28:34;3.90;;;3.60;;
4867;SDS011;2448;48.086;10.862;2023-08-20T07:31:19;3.73;;;3.50;;
4867;SDS011;2448;48.086;10.862;2023-08-20T07:33:47;3.90;;;3.60;;
4867;SDS011;2448;48.086;10.862;2023-08-20T07:36:13;4.37;;;3.80;;
4867;SDS011;2448;48.086;10.862;2023-08-20T07:38:39;5.13;;;3.90;;
4867;SDS011;2448;48.086;10.862;2023-08-20T07:41:06;5.60;;;3.50;;
4867;SDS011;2448;48.086;10.862;2023-08-20T07:43:32;4.60;;;4.20;;
4867;SDS011;2448;48.086;10.862;2023-08-20T07:45:57;7.57;;;3.33;;
4867;SDS011;2448;48.086;10.862;2023-08-20T07:48:22;3.77;;;3.10;;
4867;SDS011;2448;48.086;10.862;2023-08-20T07:50:48;3.40;;;3.10;;
4867;SDS011;2448;48.086;10.862;2023-08-20T07:53:13;5.10;;;3.50;;
4867;SDS011;2448;48.086;10.862;2023-08-20T07:55:39;5.00;;;3.90;;
4867;SDS011;2448;48.086;10.862;2023-08-20T07:58:04;3.97;;;3.47;;
4867;SDS011;2448;48.086;10.862;2023-08-20T08:00:29;4.32;;;3.92;;
4867;SDS011;2448;48.086;10.862;2023-08-20T08:02:55;7.13;;;3.58;;
4867;SDS011;2448;48.086;10.862;2023-08-20T08:05:20;6.10;;;3.45;;
4867;SDS011;2448;48.086;10.862;2023-08-20T08:07:45;5.05;;;3.47;;
4867;SDS011;2448;48.086;10.862;2023-08-20T08:10:11;7.93;;;3.80;;
4867;SDS011;2448;48.086;10.862;2023-08-20T08:12:36;3.72;;;3.42;;
4867;SDS011;2448;48.086;10.862;2023-08-20T08:15:02;5.40;;;3.20;;
4867;SDS011;2448;48.086;10.862;2023-08-20T08:17:27;4.80;;;3.65;;
4867;SDS011;2448;48.086;10.862;2023-08-20T08:19:53;3.95;;;3.45;;
4867;SDS011;2448;48.086;10.862;2023-08-20T08:22:22;3.45;;;3.25;;
4867;SDS011;2448;48.086;10.862;2023-08-20T08:24:47;3.20;;;3.00;;
4867;SDS011;2448;48.086;10.862;2023-08-20T08:27:12;6.97;;;3.10;;
4867;SDS011;2448;48.086;10.862;2023-08-20T08:29:38;3.30;;;3.00;;
4867;SDS011;2448;48.086;10.862;2023-08-20T08:32:03;9.45;;;3.80;;
4867;SDS011;2448;48.086;10.862;2023-08-20T08:34:29;3.63;;;3.30;;
4867;SDS011;2448;48.086;10.862;2023-08-20T08:36:54;3.05;;;2.85;;
4867;SDS011;2448;48.086;10.862;2023-08-20T08:39:19;3.08;;;2.83;;
4867;SDS011;2448;48.086;10.862;2023-08-20T08:41:45;3.88;;;3.17;;
4867;SDS011;2448;48.086;10.862;2023-08-20T08:44:12;3.30;;;2.53;;
4867;SDS011;2448;48.086;10.862;2023-08-20T08:46:38;6.05;;;3.05;;
4867;SDS011;2448;48.086;10.862;2023-08-20T08:49:03;4.53;;;2.70;;
4867;SDS011;2448;48.086;10.862;2023-08-20T08:51:30;5.20;;;3.33;;
4867;SDS011;2448;48.086;10.862;2023-08-20T08:53:55;6.70;;;2.88;;
4867;SDS011;2448;48.086;10.862;2023-08-20T08:56:21;2.75;;;2.55;;
4867;SDS011;2448;48.086;10.862;2023-08-20T08:58:47;2.90;;;2.63;;
4867;SDS011;2448;48.086;10.862;2023-08-20T09:01:13;5.30;;;3.00;;
4867;SDS011;2448;48.086;10.862;2023-08-20T09:03:38;3.10;;;2.90;;
4867;SDS011;2448;48.086;10.862;2023-08-20T09:06:07;2.88;;;2.78;;
4867;SDS011;2448;48.086;10.862;2023-08-20T09:08:33;3.90;;;2.90;;
4867;SDS011;2448;48.086;10.862;2023-08-20T09:11:00;3.63;;;2.88;;
4867;SDS011;2448;48.086;10.862;2023-08-20T09:15:57;3.13;;;2.92;;
4867;SDS011;2448;48.086;10.862;2023-08-20T09:18:23;3.70;;;2.83;;
4867;SDS011;2448;48.086;10.862;2023-08-20T09:20:48;2.33;;;2.22;;
4867;SDS011;2448;48.086;10.862;2023-08-20T09:23:17;3.17;;;2.92;;
4867;SDS011;2448;48.086;10.862;2023-08-20T09:25:43;8.27;;;2.67;;
4867;SDS011;2448;48.086;10.862;2023-08-20T09:28:08;4.25;;;3.15;;
4867;SDS011;2448;48.086;10.862;2023-08-20T09:30:34;2.60;;;2.40;;
4867;SDS011;2448;48.086;10.862;2023-08-20T09:33:17;6.60;;;2.90;;
4867;SDS011;2448;48.086;10.862;2023-08-20T09:35:49;4.07;;;2.30;;
4867;SDS011;2448;48.086;10.862;2023-08-20T09:38:16;3.00;;;2.80;;
4867;SDS011;2448;48.086;10.862;2023-08-20T09:40:43;7.60;;;2.75;;
4867;SDS011;2448;48.086;10.862;2023-08-20T09:43:09;4.00;;;3.03;;
4867;SDS011;2448;48.086;10.862;2023-08-20T09:45:35;7.32;;;3.38;;
4867;SDS011;2448;48.086;10.862;2023-08-20T09:48:01;2.83;;;2.22;;
4867;SDS011;2448;48.086;10.862;2023-08-20T09:50:30;3.38;;;2.70;;
4867;SDS011;2448;48.086;10.862;2023-08-20T09:55:42;5.55;;;2.67;;
4867;SDS011;2448;48.086;10.862;2023-08-20T09:58:08;2.92;;;2.83;;
4867;SDS011;2448;48.086;10.862;2023-08-20T10:00:34;9.98;;;2.50;;
4867;SDS011;2448;48.086;10.862;2023-08-20T10:03:00;2.72;;;2.13;;
4867;SDS011;2448;48.086;10.862;2023-08-20T10:05:25;4.78;;;2.80;;
4867;SDS011;2448;48.086;10.862;2023-08-20T10:07:51;2.45;;;2.28;;
4867;SDS011;2448;48.086;10.862;2023-08-20T10:10:17;8.52;;;3.17;;
4867;SDS011;2448;48.086;10.862;2023-08-20T10:12:42;3.80;;;2.30;;
4867;SDS011;2448;48.086;10.862;2023-08-20T10:15:09;3.30;;;2.38;;
4867;SDS011;2448;48.086;10.862;2023-08-20T10:17:35;2.38;;;2.17;;
4867;SDS011;2448;48.086;10.862;2023-08-20T10:20:03;2.03;;;1.92;;
4867;SDS011;2448;48.086;10.862;2023-08-20T10:22:33;4.00;;;2.78;;
4867;SDS011;2448;48.086;10.862;2023-08-20T10:24:59;3.88;;;2.70;;
4867;SDS011;2448;48.086;10.862;2023-08-20T10:27:26;2.40;;;2.30;;
4867;SDS011;2448;48.086;10.862;2023-08-20T10:29:53;2.10;;;2.00;;
4867;SDS011;2448;48.086;10.862;2023-08-20T10:32:18;1.95;;;1.85;;
4867;SDS011;2448;48.086;10.862;2023-08-20T10:34:49;2.58;;;2.00;;
4867;SDS011;2448;48.086;10.862;2023-08-20T10:37:15;1.90;;;1.80;;
4867;SDS011;2448;48.086;10.862;2023-08-20T10:39:41;4.60;;;1.98;;
4867;SDS011;2448;48.086;10.862;2023-08-20T10:47:46;3.72;;;1.67;;
4867;SDS011;2448;48.086;10.862;2023-08-20T10:50:17;1.90;;;1.80;;
4867;SDS011;2448;48.086;10.862;2023-08-20T10:52:49;2.60;;;2.28;;
4867;SDS011;2448;48.086;10.862;2023-08-20T10:55:15;1.90;;;1.80;;
4867;SDS011;2448;48.086;10.862;2023-08-20T10:57:41;2.72;;;2.17;;
4867;SDS011;2448;48.086;10.862;2023-08-20T11:00:07;1.70;;;1.60;;
4867;SDS011;2448;48.086;10.862;2023-08-20T11:02:39;2.97;;;1.67;;
4867;SDS011;2448;48.086;10.862;2023-08-20T11:05:15;8.52;;;2.28;;
4867;SDS011;2448;48.086;10.862;2023-08-20T11:07:41;5.95;;;1.73;;
4867;SDS011;2448;48.086;10.862;2023-08-20T11:10:07;4.05;;;1.90;;
4867;SDS011;2448;48.086;10.862;2023-08-20T11:12:32;3.72;;;2.00;;
4867;SDS011;2448;48.086;10.862;2023-08-20T11:15:00;2.28;;;1.92;;
4867;SDS011;2448;48.086;10.862;2023-08-20T11:17:25;1.80;;;1.70;;
4867;SDS011;2448;48.086;10.862;2023-08-20T11:19:50;2.30;;;1.75;;
4867;SDS011;2448;48.086;10.862;2023-08-20T11:22:16;1.65;;;1.55;;
4867;SDS011;2448;48.086;10.862;2023-08-20T11:24:43;3.05;;;1.67;;
4867;SDS011;2448;48.086;10.862;2023-08-20T11:27:09;3.38;;;1.70;;
4867;SDS011;2448;48.086;10.862;2023-08-20T11:29:34;3.83;;;1.70;;
4867;SDS011;2448;48.086;10.862;2023-08-20T11:32:00;1.90;;;1.77;;
4867;SDS011;2448;48.086;10.862;2023-08-20T11:34:28;1.65;;;1.60;;
4867;SDS011;2448;48.086;10.862;2023-08-20T11:36:54;2.08;;;1.88;;
4867;SDS011;2448;48.086;10.862;2023-08-20T11:39:19;3.15;;;1.90;;
4867;SDS011;2448;48.086;10.862;2023-08-20T11:41:45;1.80;;;1.70;;
4867;SDS011;2448;48.086;10.862;2023-08-20T11:44:11;3.45;;;1.80;;
4867;SDS011;2448;48.086;10.862;2023-08-20T11:46:44;2.20;;;2.10;;
4867;SDS011;2448;48.086;10.862;2023-08-20T11:49:10;2.05;;;1.85;;
4867;SDS011;2448;48.086;10.862;2023-08-20T11:51:36;2.38;;;2.17;;
4867;SDS011;2448;48.086;10.862;2023-08-20T11:54:05;3.42;;;2.45;;
4867;SDS011;2448;48.086;10.862;2023-08-20T11:56:32;7.88;;;1.88;;
4867;SDS011;2448;48.086;10.862;2023-08-20T11:59:01;1.70;;;1.60;;
4867;SDS011;2448;48.086;10.862;2023-08-20T12:01:33;1.92;;;1.80;;
4867;SDS011;2448;48.086;10.862;2023-08-20T12:03:59;4.65;;;1.77;;
4867;SDS011;2448;48.086;10.862;2023-08-20T12:06:25;2.35;;;1.73;;
4867;SDS011;2448;48.086;10.862;2023-08-20T12:08:53;1.58;;;1.48;;
4867;SDS011;2448;48.086;10.862;2023-08-20T12:11:19;1.67;;;1.58;;
4867;SDS011;2448;48.086;10.862;2023-08-20T12:13:48;2.08;;;1.88;;
4867;SDS011;2448;48.086;10.862;2023-08-20T12:16:13;5.90;;;2.03;;
4867;SDS011;2448;48.086;10.862;2023-08-20T12:18:39;5.13;;;1.60;;
4867;SDS011;2448;48.086;10.862;2023-08-20T12:21:04;1.38;;;1.33;;
4867;SDS011;2448;48.086;10.862;2023-08-20T12:23:29;2.20;;;1.98;;
4867;SDS011;2448;48.086;10.862;2023-08-20T12:25:55;6.30;;;2.28;;
4867;SDS011;2448;48.086;10.862;2023-08-20T12:28:20;2.47;;;1.70;;
4867;SDS011;2448;48.086;10.862;2023-08-20T12:30:46;2.35;;;1.38;;
4867;SDS011;2448;48.086;10.862;2023-08-20T12:33:11;3.45;;;1.65;;
4867;SDS011;2448;48.086;10.862;2023-08-20T12:35:36;5.13;;;1.98;;
4867;SDS011;2448;48.086;10.862;2023-08-20T12:38:02;1.80;;;1.70;;
4867;SDS011;2448;48.086;10.862;2023-08-20T12:40:28;2.08;;;1.85;;
4867;SDS011;2448;48.086;10.862;2023-08-20T12:42:53;9.68;;;1.85;;
4867;SDS011;2448;48.086;10.862;2023-08-20T12:45:19;3.95;;;2.05;;
4867;SDS011;2448;48.086;10.862;2023-08-20T12:47:45;1.80;;;1.70;;
4867;SDS011;2448;48.086;10.862;2023-08-20T12:50:11;2.15;;;1.83;;
4867;SDS011;2448;48.086;10.862;2023-08-20T12:52:38;1.63;;;1.52;;
4867;SDS011;2448;48.086;10.862;2023-08-20T12:55:04;1.77;;;1.70;;
4867;SDS011;2448;48.086;10.862;2023-08-20T12:57:29;1.67;;;1.50;;
4867;SDS011;2448;48.086;10.862;2023-08-20T12:59:55;7.78;;;1.65;;
4867;SDS011;2448;48.086;10.862;2023-08-20T13:02:20;2.05;;;1.85;;
4867;SDS011;2448;48.086;10.862;2023-08-20T13:04:46;5.88;;;1.60;;
4867;SDS011;2448;48.086;10.862;2023-08-20T13:07:12;5.63;;;1.70;;
4867;SDS011;2448;48.086;10.862;2023-08-20T13:09:38;3.22;;;1.30;;
4867;SDS011;2448;48.086;10.862;2023-08-20T13:12:04;2.30;;;1.77;;
4867;SDS011;2448;48.086;10.862;2023-08-20T13:14:30;2.90;;;1.85;;
4867;SDS011;2448;48.086;10.862;2023-08-20T13:16:56;2.75;;;1.98;;
4867;SDS011;2448;48.086;10.862;2023-08-20T13:19:21;3.47;;;2.00;;
4867;SDS011;2448;48.086;10.862;2023-08-20T13:21:47;2.67;;;1.58;;
4867;SDS011;2448;48.086;10.862;2023-08-20T13:24:12;1.85;;;1.75;;
4867;SDS011;2448;48.086;10.862;2023-08-20T13:26:38;2.88;;;1.60;;
4867;SDS011;2448;48.086;10.862;2023-08-20T13:29:03;2.38;;;2.08;;
4867;SDS011;2448;48.086;10.862;2023-08-20T13:31:28;9.63;;;1.60;;
4867;SDS011;2448;48.086;10.862;2023-08-20T13:33:54;3.85;;;1.40;;
4867;SDS011;2448;48.086;10.862;2023-08-20T13:36:19;2.28;;;1.73;;
4867;SDS011;2448;48.086;10.862;2023-08-20T13:38:44;3.33;;;1.30;;
4867;SDS011;2448;48.086;10.862;2023-08-20T13:41:10;1.70;;;1.50;;
4867;SDS011;2448;48.086;10.862;2023-08-20T13:43:35;2.70;;;1.38;;
4867;SDS011;2448;48.086;10.862;2023-08-20T13:46:01;1.85;;;1.75;;
4867;SDS011;2448;48.086;10.862;2023-08-20T13:48:26;1.60;;;1.55;;
4867;SDS011;2448;48.086;10.862;2023-08-20T13:50:51;2.83;;;1.60;;
4867;SDS011;2448;48.086;10.862;2023-08-20T13:53:17;1.80;;;1.55;;
4867;SDS011;2448;48.086;10.862;2023-08-20T13:55:42;2.35;;;1.52;;
4867;SDS011;2448;48.086;10.862;2023-08-20T13:58:07;1.50;;;1.50;;
4867;SDS011;2448;48.086;10.862;2023-08-20T14:00:33;10.07;;;1.92;;
4867;SDS011;2448;48.086;10.862;2023-08-20T14:02:58;2.03;;;1.40;;
4867;SDS011;2448;48.086;10.862;2023-08-20T14:05:24;2.25;;;1.67;;
4867;SDS011;2448;48.086;10.862;2023-08-20T14:07:49;2.05;;;1.88;;
4867;SDS011;2448;48.086;10.862;2023-08-20T14:10:15;1.85;;;1.60;;
4867;SDS011;2448;48.086;10.862;2023-08-20T14:12:41;1.63;;;1.60;;
4867;SDS011;2448;48.086;10.862;2023-08-20T14:15:06;5.22;;;1.80;;
4867;SDS011;2448;48.086;10.862;2023-08-20T14:17:32;1.85;;;1.75;;
4867;SDS011;2448;48.086;10.862;2023-08-20T14:19:57;1.88;;;1.75;;
4867;SDS011;2448;48.086;10.862;2023-08-20T14:22:23;5.22;;;1.70;;
4867;SDS011;2448;48.086;10.862;2023-08-20T14:24:48;4.47;;;2.10;;
4867;SDS011;2448;48.086;10.862;2023-08-20T14:27:14;1.85;;;1.75;;
4867;SDS011;2448;48.086;10.862;2023-08-20T14:29:40;1.60;;;1.50;;
4867;SDS011;2448;48.086;10.862;2023-08-20T14:32:05;1.45;;;1.45;;
4867;SDS011;2448;48.086;10.862;2023-08-20T14:34:31;2.00;;;1.90;;
4867;SDS011;2448;48.086;10.862;2023-08-20T14:36:56;1.80;;;1.70;;
4867;SDS011;2448;48.086;10.862;2023-08-20T14:39:22;1.77;;;1.70;;
4867;SDS011;2448;48.086;10.862;2023-08-20T14:41:47;2.55;;;1.55;;
4867;SDS011;2448;48.086;10.862;2023-08-20T14:44:12;1.88;;;1.77;;
4867;SDS011;2448;48.086;10.862;2023-08-20T14:46:38;4.30;;;1.88;;
4867;SDS011;2448;48.086;10.862;2023-08-20T14:49:03;5.13;;;2.35;;
4867;SDS011;2448;48.086;10.862;2023-08-20T14:51:29;9.73;;;1.73;;
4867;SDS011;2448;48.086;10.862;2023-08-20T14:53:54;1.55;;;1.50;;
4867;SDS011;2448;48.086;10.862;2023-08-20T14:56:19;2.13;;;1.77;;
4867;SDS011;2448;48.086;10.862;2023-08-20T14:58:45;1.92;;;1.83;;
4867;SDS011;2448;48.086;10.862;2023-08-20T15:01:10;2.42;;;1.83;;
4867;SDS011;2448;48.086;10.862;2023-08-20T15:03:35;3.33;;;2.03;;
4867;SDS011;2448;48.086;10.862;2023-08-20T15:06:01;3.15;;;2.38;;
4867;SDS011;2448;48.086;10.862;2023-08-20T15:08:26;2.08;;;1.98;;
4867;SDS011;2448;48.086;10.862;2023-08-20T15:10:58;2.10;;;2.00;;
4867;SDS011;2448;48.086;10.862;2023-08-20T15:13:26;7.93;;;2.00;;